Time;durP1;ratioP1;P1;durP2;ratioP2;P2;SDS_P1;SDS_P2;PMS_P1;PMS_P2;Temp;Humidity;BMP_temperature;BMP_pressure;BME280_temperature;BME280_humidity;BME280_pressure;Samples;Min_cycle;Max_cycle;Signal;HPM_P1;HPM_P2
2021/12/24 00:00:40;;;;;;;77.25;28.92;;;;;;;4.38;100.00;100085.25;4701604;30;20040;-75
2021/12/24 00:03:11;;;;;;;93.13;30.52;;;;;;;4.41;100.00;100085.31;4739880;30;20048;-76
2021/12/24 00:05:41;;;;;;;84.05;31.55;;;;;;;4.42;100.00;100095.78;4715996;30;20265;-75
2021/12/24 00:08:10;;;;;;;97.32;32.22;;;;;;;4.44;100.00;100091.47;4738380;30;20045;-75
2021/12/24 00:10:45;;;;;;;73.93;27.70;;;;;;;4.44;100.00;100088.84;4727685;30;20770;-75
2021/12/24 00:13:15;;;;;;;78.45;27.08;;;;;;;4.47;100.00;100085.41;4728641;30;20060;-75
2021/12/24 00:18:40;;;;;;;91.53;30.23;;;;;;;4.48;100.00;100080.22;4725350;30;19926;-74
2021/12/24 00:37:41;;;;;;;106.97;33.13;;;;;;;4.49;100.00;100079.34;4726240;30;20229;-75
2021/12/24 00:40:18;;;;;;;101.57;31.45;;;;;;;4.51;100.00;100075.91;4728349;30;20415;-75
2021/12/24 00:42:54;;;;;;;86.97;28.48;;;;;;;4.52;100.00;100077.63;4722539;30;20295;-75
2021/12/24 00:45:32;;;;;;;93.85;29.05;;;;;;;4.53;100.00;100074.19;4723528;30;20071;-75
2021/12/24 00:48:02;;;;;;;91.68;28.08;;;;;;;4.56;100.00;100084.69;4729991;30;20060;-76
2021/12/24 00:50:49;;;;;;;100.43;29.73;;;;;;;4.55;100.00;100073.34;4733253;30;20052;-75
2021/12/24 00:56:03;;;;;;;94.13;29.30;;;;;;;4.61;100.00;100067.34;4739974;30;20063;-75
2021/12/24 00:58:32;;;;;;;81.13;28.30;;;;;;;4.62;100.00;100069.09;4699683;30;20055;-76
2021/12/24 01:01:01;;;;;;;86.15;29.08;;;;;;;4.62;100.00;100069.09;4736302;30;20052;-74
2021/12/24 01:03:29;;;;;;;89.55;28.38;;;;;;;4.61;100.00;100065.63;4737243;30;20067;-75
2021/12/24 01:05:59;;;;;;;100.10;30.35;;;;;;;4.62;100.00;100056.06;4740578;30;20055;-76
2021/12/24 01:08:28;;;;;;;118.10;33.05;;;;;;;4.61;100.00;100056.91;4741311;30;20054;-76
2021/12/24 01:11:00;;;;;;;99.07;30.30;;;;;;;4.61;100.00;100055.19;4749924;30;20039;-75
2021/12/24 01:13:30;;;;;;;103.07;31.70;;;;;;;4.62;100.00;100059.53;4757410;29;20055;-75
2021/12/24 01:16:03;;;;;;;105.53;30.75;;;;;;;4.62;100.00;100048.22;4714462;30;20059;-76
2021/12/24 01:19:02;;;;;;;135.60;34.72;;;;;;;4.61;100.00;100052.56;4731720;30;20047;-75
2021/12/24 01:21:53;;;;;;;66.47;22.43;;;;;;;4.62;100.00;100046.50;4727369;30;20036;-75
2021/12/24 01:24:22;;;;;;;94.18;27.52;;;;;;;4.60;100.00;100050.81;4730677;30;20302;-77
2021/12/24 01:27:09;;;;;;;91.28;27.75;;;;;;;4.61;100.00;100049.06;4722540;30;20040;-75
2021/12/24 01:37:55;;;;;;;100.80;28.20;;;;;;;4.65;100.00;100041.31;4718241;30;21471;-76
2021/12/24 01:43:13;;;;;;;88.60;26.13;;;;;;;4.67;100.00;100031.78;4746590;30;20510;-75
2021/12/24 01:45:46;;;;;;;77.03;25.77;;;;;;;4.67;100.00;100037.00;4719352;30;20063;-75
2021/12/24 01:48:15;;;;;;;66.55;22.35;;;;;;;4.68;100.00;100037.88;4738140;30;20043;-75
2021/12/24 01:50:48;;;;;;;89.32;26.40;;;;;;;4.70;100.00;100036.16;4736691;30;20462;-75
2021/12/24 01:53:21;;;;;;;50.70;21.65;;;;;;;4.71;100.00;100037.94;4745610;30;20024;-75
2021/12/24 01:55:51;;;;;;;65.35;23.17;;;;;;;4.71;100.00;100031.81;4743618;30;20048;-75
2021/12/24 01:58:24;;;;;;;68.38;22.92;;;;;;;4.73;100.00;100030.13;4731565;30;20048;-76
2021/12/24 02:00:56;;;;;;;68.78;22.55;;;;;;;4.74;100.00;100030.13;4721697;30;20044;-75
2021/12/24 02:03:25;;;;;;;55.45;20.42;;;;;;;4.76;100.00;100035.38;4720169;30;20059;-75
2021/12/24 02:05:55;;;;;;;61.60;21.27;;;;;;;4.78;100.00;100031.03;4720077;30;20039;-74
2021/12/24 02:08:23;;;;;;;56.13;19.77;;;;;;;4.80;100.00;100027.63;4705918;30;20067;-76
2021/12/24 02:10:52;;;;;;;65.10;20.95;;;;;;;4.82;100.00;100025.00;4739538;30;20054;-75
2021/12/24 02:13:22;;;;;;;39.83;15.60;;;;;;;4.84;100.00;100028.53;4763881;30;20040;-75
2021/12/24 02:28:20;;;;;;;35.78;16.25;;;;;;;4.94;100.00;100022.56;4737023;30;20136;-75
2021/12/24 02:29:52;;;;;;;48.22;18.15;;;;;;;5.08;100.00;100013.19;4745619;30;20051;-75
2021/12/24 02:32:20;;;;;;;35.80;15.95;;;;;;;5.12;100.00;100007.97;4705650;30;20060;-75
2021/12/24 02:34:52;;;;;;;31.33;14.05;;;;;;;5.15;100.00;99998.44;4723184;30;20192;-74
2021/12/24 02:37:23;;;;;;;34.60;14.90;;;;;;;5.19;100.00;99999.34;4707879;30;20062;-75
2021/12/24 02:39:56;;;;;;;30.67;14.82;;;;;;;5.21;100.00;99993.28;4770749;30;20055;-74
2021/12/24 02:42:24;;;;;;;30.92;13.57;;;;;;;5.24;100.00;99995.94;4746887;30;20043;-75
2021/12/24 02:44:53;;;;;;;32.53;14.60;;;;;;;5.25;100.00;99992.47;4745461;30;20052;-75
2021/12/24 02:47:40;;;;;;;32.00;14.32;;;;;;;5.26;100.00;99989.00;4691106;30;20059;-74
2021/12/24 02:55:31;;;;;;;29.15;13.57;;;;;;;5.33;100.00;99987.34;4757660;30;20058;-74
2021/12/24 02:58:03;;;;;;;45.50;16.13;;;;;;;5.35;100.00;99987.31;4726077;30;20534;-75
2021/12/24 03:00:31;;;;;;;37.38;14.18;;;;;;;5.36;100.00;99976.91;4725383;30;20048;-75
2021/12/24 03:03:04;;;;;;;32.35;13.40;;;;;;;5.37;100.00;99983.00;4708890;30;20545;-75
2021/12/24 03:05:32;;;;;;;32.83;14.55;;;;;;;5.38;100.00;99990.84;4714153;30;20423;-75
2021/12/24 03:08:01;;;;;;;32.78;13.77;;;;;;;5.40;100.00;99977.81;4736518;30;20052;-75
2021/12/24 03:10:30;;;;;;;35.03;14.55;;;;;;;5.41;100.00;99972.59;4723265;30;20059;-75
2021/12/24 03:12:58;;;;;;;25.90;11.98;;;;;;;5.43;100.00;99977.84;4734458;30;20048;-75
2021/12/24 03:15:27;;;;;;;21.65;10.73;;;;;;;5.43;100.00;99977.84;4733876;30;20045;-75
2021/12/24 03:17:58;;;;;;;26.42;12.38;;;;;;;5.46;100.00;99976.16;4692538;30;20498;-74
2021/12/24 03:20:33;;;;;;;25.85;12.68;;;;;;;5.48;100.00;99965.69;4720007;30;20064;-75
2021/12/24 03:23:32;;;;;;;29.85;13.70;;;;;;;5.49;100.00;99963.97;4749345;30;20048;-74
2021/12/24 03:26:00;;;;;;;28.65;11.90;;;;;;;5.51;100.00;99964.84;4746182;30;20052;-75
2021/12/24 03:28:29;;;;;;;34.03;12.95;;;;;;;5.53;100.00;99966.63;4720681;30;20067;-76
2021/12/24 03:30:57;;;;;;;29.42;12.55;;;;;;;5.54;100.00;99971.00;4763103;30;20058;-74
2021/12/24 03:33:27;;;;;;;29.98;12.88;;;;;;;5.55;100.00;99957.03;4709347;30;20032;-76
2021/12/24 03:35:56;;;;;;;32.97;12.65;;;;;;;5.57;100.00;99957.94;4724728;30;20048;-75
2021/12/24 03:38:24;;;;;;;28.70;12.55;;;;;;;5.60;100.00;99954.50;4708011;30;20072;-75
2021/12/24 03:40:53;;;;;;;30.30;13.90;;;;;;;5.62;100.00;99958.00;4711909;30;20060;-74
2021/12/24 03:43:23;;;;;;;24.15;10.48;;;;;;;5.63;100.00;99960.63;4734297;30;20056;-75
2021/12/24 03:48:39;;;;;;;41.80;14.68;;;;;;;5.67;100.00;99951.03;4713993;30;20052;-75
2021/12/24 03:51:40;;;;;;;57.67;17.75;;;;;;;5.69;100.00;99949.34;4721846;30;20051;-76
2021/12/24 03:56:46;;;;;;;35.47;14.90;;;;;;;5.72;100.00;99966.78;4724481;30;20291;-75
2021/12/24 03:59:36;;;;;;;52.88;17.38;;;;;;;5.72;100.00;99951.97;4719449;30;20056;-74
2021/12/24 04:02:41;;;;;;;46.50;16.50;;;;;;;5.74;100.00;99950.25;4668011;30;20882;-75
2021/12/24 04:05:28;;;;;;;60.85;18.25;;;;;;;5.75;100.00;99949.41;4758029;30;20055;-75
2021/12/24 04:08:16;;;;;;;54.60;17.80;;;;;;;5.79;100.00;99942.47;4735120;30;20054;-75
2021/12/24 04:11:14;;;;;;;51.15;17.02;;;;;;;5.81;100.00;99941.59;4736771;30;20068;-75
2021/12/24 04:13:46;;;;;;;50.33;17.70;;;;;;;5.82;100.00;99945.97;4744857;30;20623;-76
2021/12/24 04:16:15;;;;;;;55.95;18.15;;;;;;;5.84;100.00;99939.03;4726659;30;20056;-75
2021/12/24 04:25:06;;;;;;;70.00;20.83;;;;;;;5.91;100.00;99939.91;4704683;30;20047;-75
2021/12/24 04:27:30;;;;;;;61.85;17.45;;;;;;;5.93;100.00;99942.56;4708873;30;20060;-75
2021/12/24 04:30:10;;;;;;;57.75;17.67;;;;;;;5.97;100.00;99944.34;4718318;30;20455;-76
2021/12/24 04:51:27;;;;;;;39.17;13.90;;;;;;;6.18;100.00;99938.41;4729682;30;20055;-75
2021/12/24 05:02:50;;;;;;;64.32;18.98;;;;;;;6.29;100.00;99935.84;4727661;30;20171;-76
2021/12/24 05:05:37;;;;;;;56.45;16.88;;;;;;;6.30;100.00;99935.00;4715899;30;20529;-74
2021/12/24 05:10:42;;;;;;;77.78;20.80;;;;;;;6.35;100.00;99949.88;4734761;30;20047;-76
2021/12/24 05:13:16;;;;;;;58.22;17.85;;;;;;;6.36;100.00;99938.50;4743864;30;20044;-75
2021/12/24 05:16:18;;;;;;;55.17;17.35;;;;;;;6.39;100.00;99945.50;4743862;30;20550;-76
2021/12/24 05:22:09;;;;;;;48.33;16.83;;;;;;;6.46;100.00;99930.72;4746661;30;20055;-76
2021/12/24 05:24:42;;;;;;;54.20;17.05;;;;;;;6.51;100.00;99929.88;4705639;30;20265;-76
2021/12/24 05:27:11;;;;;;;56.00;18.35;;;;;;;6.54;100.00;99922.06;4753369;30;20403;-75
2021/12/24 05:29:39;;;;;;;66.60;21.48;;;;;;;6.57;100.00;99919.44;4717788;30;20589;-75
2021/12/24 05:32:08;;;;;;;71.45;21.40;;;;;;;6.59;100.00;99920.31;4714185;30;20055;-75
2021/12/24 05:34:37;;;;;;;75.38;23.83;;;;;;;6.66;100.00;99922.97;4705577;30;20308;-75
2021/12/24 05:37:05;;;;;;;75.25;25.55;;;;;;;6.69;100.00;99922.97;4733281;30;20537;-75
2021/12/24 05:39:34;;;;;;;102.05;29.85;;;;;;;6.73;100.00;99916.88;4720174;30;20145;-74
2021/12/24 05:42:05;;;;;;;99.93;30.88;;;;;;;6.74;100.00;99916.00;4743736;30;20048;-75
2021/12/24 05:44:34;;;;;;;87.30;29.13;;;;;;;6.75;100.00;99912.53;4714897;30;20052;-75
2021/12/24 05:47:28;;;;;;;93.47;29.35;;;;;;;6.77;100.00;99914.28;4730648;30;20511;-75
2021/12/24 05:50:05;;;;;;;98.80;27.35;;;;;;;6.78;100.00;99910.78;4720888;30;20052;-74
2021/12/24 05:52:43;;;;;;;91.45;29.27;;;;;;;6.81;100.00;99912.56;4762064;30;20052;-76
2021/12/24 05:55:21;;;;;;;73.75;24.92;;;;;;;6.81;100.00;99921.28;4738482;30;20384;-75
2021/12/24 05:57:58;;;;;;;86.22;27.17;;;;;;;6.82;100.00;99911.66;4731249;30;20166;-75
2021/12/24 06:00:27;;;;;;;98.15;30.40;;;;;;;6.82;100.00;99923.03;4722641;30;20056;-75
2021/12/24 06:02:56;;;;;;;101.35;29.02;;;;;;;6.82;100.00;99917.81;4730327;30;20272;-75
2021/12/24 06:05:24;;;;;;;89.63;28.80;;;;;;;6.84;100.00;99923.03;4755003;29;20517;-74
2021/12/24 06:07:53;;;;;;;88.47;29.13;;;;;;;6.84;100.00;99925.63;4728355;30;20215;-75
2021/12/24 06:10:22;;;;;;;103.07;30.60;;;;;;;6.84;100.00;99930.88;4746464;30;20380;-75
2021/12/24 06:12:50;;;;;;;114.32;32.63;;;;;;;6.84;100.00;99928.25;4716268;30;20550;-75
2021/12/24 06:15:23;;;;;;;127.65;32.30;;;;;;;6.84;100.00;99930.88;4743991;30;20044;-74
2021/12/24 06:17:55;;;;;;;119.30;31.85;;;;;;;6.81;100.00;99939.59;4706980;30;20036;-74
2021/12/24 06:20:26;;;;;;;61.70;20.83;;;;;;;6.79;100.00;99943.97;4720336;30;20059;-75
2021/12/24 06:22:54;;;;;;;57.45;19.30;;;;;;;6.70;100.00;99938.69;4694147;30;20257;-75
2021/12/24 06:25:23;;;;;;;51.72;17.88;;;;;;;6.61;100.00;99936.03;4701085;30;20047;-75
2021/12/24 06:27:52;;;;;;;53.75;15.77;;;;;;;6.52;100.00;99951.69;4717803;30;20056;-76
2021/12/24 06:30:20;;;;;;;47.28;16.02;;;;;;;6.43;100.00;99960.38;4719659;30;20048;-76
2021/12/24 06:32:49;;;;;;;55.47;17.27;;;;;;;6.36;100.00;99951.59;4722670;30;20055;-76
2021/12/24 06:35:17;;;;;;;65.13;16.98;;;;;;;6.30;100.00;99959.41;4760313;30;20502;-75
2021/12/24 06:37:46;;;;;;;59.80;16.20;;;;;;;6.25;100.00;99966.34;4736507;30;20047;-75
2021/12/24 06:40:14;;;;;;;38.15;12.95;;;;;;;6.19;100.00;99967.19;4713569;30;20052;-74
2021/12/24 06:42:43;;;;;;;131.85;17.33;;;;;;;6.15;100.00;99975.88;4706170;30;20068;-75
2021/12/24 06:45:12;;;;;;;70.50;14.73;;;;;;;6.09;100.00;99969.72;4755225;30;20055;-74
2021/12/24 06:47:40;;;;;;;38.22;11.05;;;;;;;6.06;100.00;99978.44;4728666;30;20601;-75
2021/12/24 06:50:09;;;;;;;26.20;9.35;;;;;;;6.01;100.00;99977.50;4719486;30;20044;-75
2021/12/24 06:52:38;;;;;;;36.28;11.68;;;;;;;5.97;100.00;99983.59;4730946;30;20056;-76
2021/12/24 06:55:08;;;;;;;32.38;10.75;;;;;;;5.92;100.00;99975.69;4716934;30;20173;-75
2021/12/24 06:57:41;;;;;;;43.13;11.57;;;;;;;5.91;100.00;99980.91;4708794;30;20044;-75
2021/12/24 07:00:15;;;;;;;45.17;12.15;;;;;;;5.88;100.00;99981.75;4694320;30;20048;-76
2021/12/24 07:02:45;;;;;;;113.07;17.63;;;;;;;5.87;100.00;99982.59;4684547;30;20067;-76
2021/12/24 07:05:15;;;;;;;31.02;10.88;;;;;;;5.83;100.00;99984.31;4704453;30;20274;-75
2021/12/24 07:07:44;;;;;;;172.90;25.33;;;;;;;5.82;100.00;99987.81;4726664;30;20059;-76
2021/12/24 07:10:14;;;;;;;27.35;9.60;;;;;;;5.80;100.00;99991.25;4698625;30;20056;-75
2021/12/24 07:12:43;;;;;;;22.73;7.65;;;;;;;5.79;100.00;99994.75;4742281;30;20056;-75
2021/12/24 07:15:12;;;;;;;25.88;8.70;;;;;;;5.74;100.00;99997.31;4701180;30;20052;-74
2021/12/24 07:17:41;;;;;;;18.30;7.55;;;;;;;5.67;100.00;100003.31;4687763;30;20041;-75
2021/12/24 07:20:10;;;;;;;21.45;8.57;;;;;;;5.62;100.00;100012.88;4717156;30;20072;-74
2021/12/24 07:22:39;;;;;;;19.50;8.35;;;;;;;5.57;100.00;100011.94;4727099;30;20056;-75
2021/12/24 07:25:08;;;;;;;28.88;9.23;;;;;;;5.52;100.00;100014.53;4666136;30;20057;-76
2021/12/24 07:27:37;;;;;;;23.85;9.38;;;;;;;5.48;100.00;100012.72;4703028;30;20052;-75
2021/12/24 07:30:09;;;;;;;23.48;8.23;;;;;;;5.46;100.00;100012.72;4695050;30;20555;-75
2021/12/24 07:32:39;;;;;;;18.80;8.27;;;;;;;5.44;100.00;100024.00;4701245;30;20439;-74
2021/12/24 07:35:09;;;;;;;30.13;10.85;;;;;;;5.41;100.00;100018.78;4712208;30;20047;-75
2021/12/24 07:37:39;;;;;;;20.17;8.50;;;;;;;5.40;100.00;100020.47;4725254;30;20076;-75
2021/12/24 07:40:08;;;;;;;30.42;10.35;;;;;;;5.40;100.00;100024.84;4709123;30;20060;-75
2021/12/24 07:42:38;;;;;;;16.90;7.87;;;;;;;5.38;100.00;100027.44;4722294;30;20539;-75
2021/12/24 07:45:08;;;;;;;34.08;10.55;;;;;;;5.37;100.00;100033.53;4700849;30;20433;-75
2021/12/24 07:47:41;;;;;;;28.67;10.85;;;;;;;5.36;100.00;100028.28;4689992;30;20443;-75
2021/12/24 07:52:57;;;;;;;19.42;8.30;;;;;;;5.33;100.00;100039.59;4742238;30;20052;-75
2021/12/24 07:55:28;;;;;;;38.10;12.07;;;;;;;5.30;100.00;100036.06;4692063;30;20074;-76
2021/12/24 07:57:57;;;;;;;20.10;8.65;;;;;;;5.29;100.00;100048.22;4732276;30;20066;-75
2021/12/24 08:00:27;;;;;;;43.35;11.43;;;;;;;5.28;100.00;100049.09;4749357;30;20066;-75
2021/12/24 08:02:58;;;;;;;51.53;11.63;;;;;;;5.26;100.00;100045.59;4723611;30;20066;-75
2021/12/24 08:05:35;;;;;;;37.88;11.38;;;;;;;5.25;100.00;100052.56;4714002;30;20079;-75
2021/12/24 08:08:03;;;;;;;67.28;14.15;;;;;;;5.24;100.00;100050.78;4755080;30;20103;-76
2021/12/24 08:10:34;;;;;;;82.35;15.93;;;;;;;5.24;100.00;100058.63;4741734;30;20063;-75
2021/12/24 08:13:04;;;;;;;60.10;12.90;;;;;;;5.24;100.00;100048.19;4716290;30;20056;-76
2021/12/24 08:15:33;;;;;;;74.03;15.30;;;;;;;5.25;100.00;100063.00;4707402;30;20055;-75
2021/12/24 08:18:01;;;;;;;164.98;21.65;;;;;;;5.25;100.00;100046.44;4722113;30;20054;-76
2021/12/24 08:20:30;;;;;;;43.90;11.65;;;;;;;5.23;100.00;100059.47;4728612;30;20051;-76
2021/12/24 08:22:58;;;;;;;71.80;15.02;;;;;;;5.23;100.00;100059.47;4742361;30;20418;-74
2021/12/24 08:25:28;;;;;;;33.17;10.50;;;;;;;5.20;100.00;100062.06;4744388;30;20051;-75
2021/12/24 08:27:57;;;;;;;30.38;9.43;;;;;;;5.19;100.00;100077.72;4692985;30;20059;-75
2021/12/24 08:30:26;;;;;;;27.23;11.07;;;;;;;5.14;100.00;100069.84;4753358;30;20047;-74
2021/12/24 08:32:56;;;;;;;40.65;13.63;;;;;;;5.13;100.00;100075.03;4703203;30;20364;-76
2021/12/24 08:35:25;;;;;;;47.10;15.00;;;;;;;5.10;100.00;100078.47;4732192;30;20423;-75
2021/12/24 08:37:54;;;;;;;45.92;14.95;;;;;;;5.08;100.00;100068.03;4744204;30;20288;-75
2021/12/24 08:40:23;;;;;;;36.97;13.88;;;;;;;5.11;100.00;100079.34;4726364;30;20056;-76
2021/12/24 08:42:52;;;;;;;56.88;17.17;;;;;;;5.10;100.00;100080.19;4735816;30;22031;-76
2021/12/24 08:45:21;;;;;;;64.28;17.33;;;;;;;5.08;100.00;100086.31;4738697;30;20052;-75
2021/12/24 08:47:49;;;;;;;54.95;14.95;;;;;;;5.08;100.00;100088.91;4722642;30;20036;-75
2021/12/24 08:50:18;;;;;;;54.92;16.02;;;;;;;5.11;100.00;100092.41;4735330;30;20058;-75
2021/12/24 08:52:47;;;;;;;43.28;13.85;;;;;;;5.10;100.00;100091.53;4721669;30;20363;-76
2021/12/24 08:55:16;;;;;;;54.00;15.90;;;;;;;5.08;100.00;100091.53;4754883;30;20071;-76
2021/12/24 08:57:44;;;;;;;73.80;17.45;;;;;;;5.09;100.00;100105.44;4728077;30;20213;-75
2021/12/24 09:00:14;;;;;;;79.55;17.95;;;;;;;5.07;100.00;100094.97;4761233;30;20044;-74
2021/12/24 09:02:43;;;;;;;90.20;18.80;;;;;;;5.05;100.00;100095.81;4705360;30;20072;-74
2021/12/24 09:05:13;;;;;;;41.75;13.48;;;;;;;5.03;100.00;100093.19;4735428;30;20310;-75
2021/12/24 09:07:42;;;;;;;47.08;16.65;;;;;;;5.01;100.00;100088.78;4752417;30;20276;-75
2021/12/24 09:10:11;;;;;;;53.50;16.50;;;;;;;5.01;100.00;100099.22;4746816;30;20055;-74
2021/12/24 09:12:44;;;;;;;78.68;17.88;;;;;;;4.98;100.00;100100.06;4748501;30;20051;-75
2021/12/24 09:15:15;;;;;;;59.08;17.38;;;;;;;4.98;100.00;100091.38;4738328;30;20070;-75
2021/12/24 09:17:46;;;;;;;41.25;15.27;;;;;;;4.97;100.00;100100.94;4720261;30;20058;-75
2021/12/24 09:20:19;;;;;;;45.60;13.80;;;;;;;4.97;100.00;100100.03;4723691;30;20056;-75
2021/12/24 09:22:48;;;;;;;40.75;12.50;;;;;;;4.95;100.00;100099.16;4731450;30;20063;-75
2021/12/24 09:25:19;;;;;;;30.08;11.93;;;;;;;4.91;100.00;100103.44;4735902;30;20040;-75
2021/12/24 09:27:47;;;;;;;30.15;11.80;;;;;;;4.89;100.00;100108.63;4734101;30;20098;-76
2021/12/24 09:30:16;;;;;;;38.25;13.13;;;;;;;4.87;100.00;100107.75;4715816;30;20512;-77
2021/12/24 09:32:45;;;;;;;41.70;14.45;;;;;;;4.84;100.00;100117.28;4721203;30;20169;-76
2021/12/24 09:35:14;;;;;;;31.10;11.93;;;;;;;4.82;100.00;100124.19;4749716;30;20067;-76
2021/12/24 09:37:43;;;;;;;20.80;10.32;;;;;;;4.79;100.00;100129.38;4705368;30;20708;-75
2021/12/24 09:40:16;;;;;;;29.58;11.82;;;;;;;4.76;100.00;100150.22;4730824;30;20534;-75
2021/12/24 09:42:45;;;;;;;22.13;10.80;;;;;;;4.74;100.00;100151.91;4730864;30;20299;-75
2021/12/24 09:45:16;;;;;;;21.88;10.73;;;;;;;4.69;100.00;100150.13;4710551;30;20044;-75
2021/12/24 09:47:44;;;;;;;;;;;;;;;4.67;100.00;100150.97;4755209;30;20079;-75
2021/12/24 09:50:18;;;;;;;15.43;8.55;;;;;;;4.62;100.00;100148.25;4755139;30;20014;-76
2021/12/24 09:52:49;;;;;;;17.35;9.15;;;;;;;4.59;100.00;100158.63;4728559;30;20272;-75
2021/12/24 09:55:25;;;;;;;18.48;9.55;;;;;;;4.57;100.00;100152.53;4713922;30;20055;-76
2021/12/24 09:57:54;;;;;;;22.45;10.13;;;;;;;4.57;100.00;100155.13;4727860;30;20066;-75
2021/12/24 10:00:25;;;;;;;24.63;11.75;;;;;;;4.56;100.00;100158.59;4725260;30;20512;-77
2021/12/24 10:02:58;;;;;;;23.92;11.38;;;;;;;4.55;100.00;100169.88;4696108;30;20044;-75
2021/12/24 10:05:34;;;;;;;17.80;9.57;;;;;;;4.51;100.00;100173.31;4721078;30;20049;-76
2021/12/24 10:08:19;;;;;;;24.15;10.38;;;;;;;4.48;100.00;100175.88;4728000;30;20061;-76
2021/12/24 10:10:51;;;;;;;32.40;12.25;;;;;;;4.50;100.00;100176.78;4753826;30;20258;-75
2021/12/24 10:13:42;;;;;;;35.33;13.82;;;;;;;4.51;100.00;100190.69;4725574;30;20503;-75
2021/12/24 10:16:20;;;;;;;31.05;13.02;;;;;;;4.51;100.00;100183.75;4702785;30;20064;-76
2021/12/24 10:18:55;;;;;;;37.50;13.68;;;;;;;4.51;100.00;100181.13;4694034;30;20272;-75
2021/12/24 10:21:32;;;;;;;29.95;12.60;;;;;;;4.52;100.00;100201.16;4720102;30;20529;-76
2021/12/24 10:24:11;;;;;;;17.58;9.80;;;;;;;4.48;100.00;100204.56;4714448;30;20060;-74
2021/12/24 10:26:48;;;;;;;25.65;11.93;;;;;;;4.43;100.00;100193.19;4726576;30;20623;-74
2021/12/24 10:29:31;;;;;;;24.00;11.38;;;;;;;4.43;100.00;100206.22;4737849;30;20408;-75
2021/12/24 10:32:10;;;;;;;14.55;9.00;;;;;;;4.43;100.00;100196.66;4727769;30;20429;-76
2021/12/24 10:34:40;;;;;;;16.38;8.73;;;;;;;4.43;100.00;100201.00;4719563;30;20071;-74
2021/12/24 10:37:12;;;;;;;14.90;8.03;;;;;;;4.41;100.00;100200.09;4701454;30;20055;-74
2021/12/24 10:39:42;;;;;;;19.90;10.43;;;;;;;4.42;100.00;100201.84;4711505;30;20318;-75
2021/12/24 10:42:16;;;;;;;28.80;13.20;;;;;;;4.45;100.00;100208.00;4728458;30;20063;-75
2021/12/24 10:44:46;;;;;;;13.13;8.55;;;;;;;4.45;100.00;100207.13;4715877;30;20657;-77
2021/12/24 10:47:26;;;;;;;17.17;9.15;;;;;;;4.43;100.00;100211.44;4706422;30;20400;-77
2021/12/24 10:53:31;;;;;;;11.63;7.50;;;;;;;4.41;100.00;100207.91;4708061;30;21504;-76
2021/12/24 10:56:00;;;;;;;18.50;10.70;;;;;;;4.40;100.00;100208.75;4716020;30;20408;-76
2021/12/24 10:58:30;;;;;;;16.85;10.05;;;;;;;4.39;100.00;100202.66;4699709;30;20396;-75
2021/12/24 11:01:00;;;;;;;16.73;10.10;;;;;;;4.41;100.00;100215.75;4705668;30;20059;-75
2021/12/24 11:03:32;;;;;;;25.65;11.38;;;;;;;4.42;100.00;100220.09;4710489;30;20398;-76
2021/12/24 11:06:09;;;;;;;32.45;12.65;;;;;;;4.43;100.00;100206.22;4705677;30;20041;-75
2021/12/24 11:08:40;;;;;;;19.73;10.70;;;;;;;4.44;100.00;100207.97;4703407;30;20052;-76
2021/12/24 11:11:15;;;;;;;12.90;8.32;;;;;;;4.46;100.00;100211.47;4704409;30;20515;-76
2021/12/24 11:13:47;;;;;;;16.52;9.10;;;;;;;4.44;100.00;100221.00;4707809;30;20063;-75
2021/12/24 11:16:19;;;;;;;17.50;10.05;;;;;;;4.42;100.00;100230.53;4734107;30;20410;-75
2021/12/24 11:18:57;;;;;;;26.70;11.65;;;;;;;4.42;100.00;100227.94;4707286;30;20045;-77
2021/12/24 11:21:30;;;;;;;16.92;9.43;;;;;;;4.42;100.00;100218.38;4743892;30;20056;-76
2021/12/24 11:24:02;;;;;;;26.50;11.68;;;;;;;4.44;100.00;100216.69;4733655;30;20442;-75
2021/12/24 11:26:40;;;;;;;17.67;9.82;;;;;;;4.46;100.00;100221.91;4709202;30;20162;-76
2021/12/24 11:29:08;;;;;;;11.10;7.80;;;;;;;4.48;100.00;100228.06;4711061;30;20063;-76
2021/12/24 11:31:40;;;;;;;20.33;9.93;;;;;;;4.47;100.00;100227.16;4724353;30;20075;-76
2021/12/24 11:34:09;;;;;;;18.88;9.38;;;;;;;4.47;100.00;100229.75;4700716;30;20491;-75
2021/12/24 11:36:38;;;;;;;16.30;9.60;;;;;;;4.47;100.00;100224.53;4730087;30;20052;-76
2021/12/24 11:39:07;;;;;;;18.85;8.85;;;;;;;4.49;100.00;100235.03;4748731;30;20048;-75
2021/12/24 11:41:37;;;;;;;12.57;8.18;;;;;;;4.51;100.00;100248.09;4744394;30;20060;-76
2021/12/24 11:44:07;;;;;;;17.23;8.88;;;;;;;4.53;100.00;100251.63;4739725;30;20056;-76
2021/12/24 11:46:39;;;;;;;17.17;9.18;;;;;;;4.53;100.00;100249.00;4720946;30;20059;-76
2021/12/24 11:49:08;;;;;;;15.57;8.98;;;;;;;4.52;100.00;100244.63;4741458;30;20525;-76
2021/12/24 11:51:40;;;;;;;15.48;8.60;;;;;;;4.54;100.00;100243.81;4690794;30;20622;-75
2021/12/24 11:54:12;;;;;;;15.40;9.10;;;;;;;4.53;100.00;100238.56;4736166;30;20522;-76
2021/12/24 11:56:42;;;;;;;15.10;9.05;;;;;;;4.50;100.00;100249.84;4722422;30;20734;-76
2021/12/24 11:59:11;;;;;;;14.30;8.73;;;;;;;4.49;100.00;100243.72;4752725;30;20063;-75
2021/12/24 12:01:43;;;;;;;15.68;9.40;;;;;;;4.51;100.00;100255.94;4717570;30;20282;-76
2021/12/24 12:04:22;;;;;;;14.93;8.70;;;;;;;4.52;100.00;100257.66;4714087;30;20314;-75
2021/12/24 12:06:51;;;;;;;21.80;12.35;;;;;;;4.53;100.00;100256.81;4709023;30;20052;-76
2021/12/24 12:09:19;;;;;;;23.20;12.98;;;;;;;4.53;100.00;100256.81;4711147;30;20300;-75
2021/12/24 12:11:57;;;;;;;31.67;17.58;;;;;;;4.53;100.00;100262.06;4723859;30;20054;-85
2021/12/24 12:14:36;;;;;;;36.50;19.88;;;;;;;4.56;100.00;100257.78;4748690;30;20069;-83
2021/12/24 12:17:08;;;;;;;26.40;16.30;;;;;;;4.58;100.00;100244.75;4732255;30;20071;-76
2021/12/24 12:24:58;;;;;;;18.90;10.23;;;;;;;4.65;100.00;100255.31;4742091;30;20518;-75
2021/12/24 12:27:44;;;;;;;20.50;11.05;;;;;;;4.71;100.00;100261.47;4734586;30;20068;-76
2021/12/24 12:30:28;;;;;;;14.70;8.40;;;;;;;4.72;100.00;100260.66;4747044;30;20055;-76
2021/12/24 12:33:36;;;;;;;15.80;9.35;;;;;;;4.69;100.00;100257.13;4742933;30;20052;-76
2021/12/24 12:36:06;;;;;;;11.30;7.53;;;;;;;4.71;100.00;100253.66;4705959;30;20063;-76
2021/12/24 12:38:40;;;;;;;13.25;7.50;;;;;;;4.71;100.00;100257.16;4702312;30;20272;-77
2021/12/24 12:41:34;;;;;;;10.93;7.40;;;;;;;4.72;100.00;100247.59;4752508;30;20419;-77
2021/12/24 12:44:08;;;;;;;16.45;8.95;;;;;;;4.74;100.00;100261.56;4733902;30;20067;-77
2021/12/24 12:46:39;;;;;;;12.32;7.97;;;;;;;4.72;100.00;100255.44;4700807;30;20063;-77
2021/12/24 12:49:11;;;;;;;13.75;8.77;;;;;;;4.73;100.00;100258.06;4710252;30;20475;-77
2021/12/24 12:52:03;;;;;;;13.32;8.80;;;;;;;4.75;100.00;100258.09;4702712;30;20700;-77
2021/12/24 12:54:48;;;;;;;12.70;7.57;;;;;;;4.76;100.00;100265.06;4748230;30;20264;-77
2021/12/24 12:57:34;;;;;;;13.18;8.55;;;;;;;4.76;100.00;100268.53;4735873;30;20066;-77
2021/12/24 13:00:19;;;;;;;11.25;7.97;;;;;;;4.76;100.00;100265.06;4730509;30;20067;-77
2021/12/24 13:03:15;;;;;;;11.90;7.18;;;;;;;4.76;100.00;100270.28;4695219;30;20052;-76
2021/12/24 13:05:44;;;;;;;11.43;7.38;;;;;;;4.76;100.00;100273.75;4694885;30;20060;-76
2021/12/24 13:08:24;;;;;;;8.93;6.78;;;;;;;4.77;100.00;100277.28;4713286;30;20060;-76
2021/12/24 13:11:11;;;;;;;12.88;8.23;;;;;;;4.77;100.00;100266.84;4726044;30;20052;-76
2021/12/24 13:13:45;;;;;;;12.50;7.55;;;;;;;4.77;100.00;100269.44;4726497;30;20051;-76
2021/12/24 13:16:16;;;;;;;9.07;6.78;;;;;;;4.78;100.00;100268.56;4726083;30;20048;-75
2021/12/24 13:18:54;;;;;;;13.55;8.63;;;;;;;4.80;100.00;100272.09;4706107;30;20082;-76
2021/12/24 13:24:14;;;;;;;11.65;8.23;;;;;;;4.82;100.00;100262.56;4705115;30;20240;-76
2021/12/24 13:26:48;;;;;;;13.48;8.35;;;;;;;4.83;100.00;100269.53;4714630;30;20282;-76
2021/12/24 13:29:17;;;;;;;11.13;8.13;;;;;;;4.83;100.00;100267.81;4728441;30;20064;-75